createdAt,value
2023-01-31T04:03:16.349Z,99747.03
2023-01-31T04:06:27.860Z,99750.75
2023-01-31T04:09:39.201Z,99750.75
2023-01-31T04:12:48.808Z,99765.13
2023-01-31T04:15:58.574Z,99766.09
2023-01-31T04:19:09.534Z,99764.00
2023-01-31T04:22:19.207Z,99755.22
2023-01-31T04:25:31.066Z,99753.59
2023-01-31T04:28:42.349Z,99753.38
2023-01-31T04:31:52.006Z,99745.81
2023-01-31T04:35:03.090Z,99747.81
2023-01-31T04:38:12.829Z,99746.91
2023-01-31T04:41:22.619Z,99743.38
2023-01-31T04:44:32.205Z,99736.50
2023-01-31T04:47:41.903Z,99740.66
2023-01-31T04:50:52.791Z,99732.19
2023-01-31T04:54:02.419Z,99739.75
2023-01-31T04:57:11.979Z,99742.28
2023-01-31T05:00:22.202Z,99735.22
2023-01-31T05:03:31.891Z,99726.53
2023-01-31T05:06:43.730Z,99728.75
2023-01-31T05:09:53.881Z,99720.97
2023-01-31T05:13:03.694Z,99728.75
2023-01-31T05:16:13.454Z,99728.03
2023-01-31T05:19:23.061Z,99735.59
2023-01-31T05:22:35.007Z,99728.75
2023-01-31T05:25:44.904Z,99723.28
2023-01-31T05:28:54.430Z,99724.31
2023-01-31T05:32:04.592Z,99709.50
2023-01-31T05:35:14.894Z,99714.41
2023-01-31T05:38:26.028Z,99721.66
2023-01-31T05:41:37.298Z,99718.03
2023-01-31T05:44:46.937Z,99721.28
2023-01-31T05:47:56.482Z,99726.72
2023-01-31T05:51:06.438Z,99733.09
2023-01-31T05:54:17.634Z,99730.84
2023-01-31T05:57:27.291Z,99721.88
2023-01-31T07:51:48.119Z,99723.03
2023-01-31T07:54:58.345Z,99723.81
2023-01-31T07:58:07.962Z,99723.81
2023-01-31T08:01:34.086Z,99715.50
2023-01-31T08:04:43.973Z,99727.91
2023-01-31T08:08:10.240Z,99723.06
2023-01-31T08:11:20.239Z,99727.63
2023-01-31T08:14:30.372Z,99735.22
2023-01-31T08:17:40.524Z,99722.56
2023-01-31T08:20:50.214Z,99720.63
2023-01-31T08:24:02.103Z,99729.31
2023-01-31T08:27:14.525Z,99721.88
2023-01-31T08:30:24.553Z,99732.41
2023-01-31T08:33:34.473Z,99733.31
2023-01-31T08:36:44.842Z,99737.06
2023-01-31T08:39:55.740Z,99746.16
2023-01-31T08:43:07.633Z,99749.16
2023-01-31T08:46:17.501Z,99758.38
2023-01-31T08:49:27.092Z,99751.25
2023-01-31T08:52:36.856Z,99753.41
2023-01-31T08:55:47.678Z,99750.63
2023-01-31T08:58:58.749Z,99722.50
2023-01-31T09:02:10.602Z,99730.34
2023-01-31T09:05:20.627Z,99720.03
2023-01-31T09:08:31.271Z,99716.44
2023-01-31T09:11:42.303Z,99713.53
2023-01-31T09:14:52.239Z,99700.16
2023-01-31T09:18:02.091Z,99701.94
2023-01-31T09:21:14.631Z,99694.75
2023-01-31T09:24:24.464Z,99690.56
2023-01-31T09:27:36.757Z,99689.16
2023-01-31T09:30:46.451Z,99698.06
2023-01-31T09:33:56.092Z,99692.63
2023-01-31T09:37:05.771Z,99689.72
2023-01-31T09:40:24.914Z,99714.34
2023-01-31T09:43:41.442Z,99696.97
2023-01-31T09:46:56.602Z,99688.47
2023-01-31T09:50:15.123Z,99693.69
2023-01-31T09:53:30.387Z,99693.91
2023-01-31T09:56:44.077Z,99715.81
2023-01-31T10:00:03.920Z,99720.13
2023-01-31T10:03:31.900Z,99709.97
2023-01-31T10:06:46.834Z,99706.72
2023-01-31T10:10:01.260Z,99708.88
2023-01-31T10:13:22.101Z,99712.50
2023-01-31T10:16:37.648Z,99698.03
2023-01-31T10:19:52.925Z,99699.50
2023-01-31T10:23:08.457Z,99708.56
2023-01-31T10:26:23.089Z,99719.81
2023-01-31T10:29:37.564Z,99716.72
2023-01-31T10:32:53.099Z,99692.25
2023-01-31T10:36:06.899Z,99682.66
2023-01-31T10:39:23.657Z,99689.56
2023-01-31T10:42:37.941Z,99698.63
2023-01-31T10:45:47.567Z,99702.94
2023-01-31T10:48:58.889Z,99692.25
2023-01-31T10:52:26.196Z,99702.78
2023-01-31T10:55:51.548Z,99690.78
2023-01-31T10:59:03.559Z,99686.63
2023-01-31T11:02:20.768Z,99648.88
2023-01-31T11:05:32.139Z,99651.75
2023-01-31T11:08:48.157Z,99645.75
2023-01-31T11:11:59.484Z,99623.41
2023-01-31T11:15:16.955Z,99616.31
2023-01-31T11:18:30.766Z,99623.97
2023-01-31T11:21:41.889Z,99616.69
2023-01-31T11:24:52.532Z,99615.66
2023-01-31T11:28:04.802Z,99611.63
2023-01-31T11:31:22.128Z,99594.50
2023-01-31T11:34:34.291Z,99592.63
2023-01-31T11:37:54.319Z,99550.94
2023-01-31T11:41:28.824Z,99527.75
2023-01-31T11:44:38.540Z,99527.78
2023-01-31T11:47:51.986Z,99500.25
2023-01-31T11:51:03.425Z,99499.22
2023-01-31T11:54:21.080Z,99505.16
2023-01-31T11:57:34.294Z,99488.97
2023-01-31T12:00:54.571Z,99487.91
2023-01-31T12:04:06.604Z,99492.16
2023-01-31T12:07:23.501Z,99470.31
2023-01-31T12:10:41.985Z,99461.19
2023-01-31T12:13:53.676Z,99452.47
2023-01-31T12:17:03.949Z,99452.34
2023-01-31T12:20:28.864Z,99457.41
2023-01-31T12:23:47.294Z,99466.03
2023-01-31T12:27:12.223Z,99474.13
2023-01-31T12:30:38.374Z,99461.38
2023-01-31T12:34:07.721Z,99443.31
2023-01-31T12:37:28.403Z,99443.56
2023-01-31T12:40:44.625Z,99444.38
2023-01-31T12:44:17.713Z,99432.31
2023-01-31T12:47:44.156Z,99421.16
2023-01-31T12:51:03.673Z,99399.72
2023-01-31T12:54:26.499Z,99392.75
2023-01-31T12:57:41.869Z,99402.16
2023-01-31T13:01:00.091Z,99395.91
2023-01-31T13:04:28.406Z,99383.81
2023-01-31T13:07:43.691Z,99390.28
2023-01-31T13:10:59.435Z,99393.38
2023-01-31T13:14:16.527Z,99382.00
2023-01-31T13:17:29.933Z,99390.66
2023-01-31T13:20:44.753Z,99398.38
2023-01-31T13:23:59.474Z,99390.28
2023-01-31T13:27:18.735Z,99398.16
2023-01-31T13:30:36.384Z,99414.88
2023-01-31T13:33:51.936Z,99400.78
2023-01-31T13:37:05.273Z,99404.41
2023-01-31T13:40:20.793Z,99403.13
2023-01-31T13:43:30.340Z,99386.88
2023-01-31T13:46:52.127Z,99398.25
2023-01-31T13:50:08.314Z,99386.16
2023-01-31T13:53:23.575Z,99390.72
2023-01-31T13:56:36.232Z,99395.13
2023-01-31T13:59:54.583Z,99395.28
2023-01-31T14:03:07.052Z,99397.38
2023-01-31T14:06:18.021Z,99403.28
2023-01-31T14:09:29.594Z,99396.53
2023-01-31T14:12:40.339Z,99392.13
2023-01-31T14:15:52.541Z,99398.47
2023-01-31T14:19:02.679Z,99409.28
2023-01-31T14:22:19.450Z,99426.13
2023-01-31T14:25:42.778Z,99418.81
2023-01-31T14:28:52.719Z,99418.13
2023-01-31T14:32:16.074Z,99426.06
2023-01-31T14:35:42.164Z,99424.28
2023-01-31T14:39:17.882Z,99415.97
2023-01-31T14:42:46.629Z,99417.81
2023-01-31T14:46:10.809Z,99421.16
2023-01-31T14:49:46.451Z,99408.59
2023-01-31T14:53:11.367Z,99402.19
2023-01-31T14:56:40.961Z,99391.69
2023-01-31T14:59:58.159Z,99377.97
2023-01-31T15:03:13.694Z,99377.41
2023-01-31T15:06:27.706Z,99380.75
2023-01-31T15:09:40.020Z,99379.53
2023-01-31T15:13:00.051Z,99392.59
2023-01-31T15:16:17.604Z,99386.59
2023-01-31T15:19:31.992Z,99394.91
2023-01-31T15:22:43.315Z,99401.47
2023-01-31T15:25:55.336Z,99405.00
2023-01-31T15:29:06.335Z,99405.66
2023-01-31T15:32:33.565Z,99412.94
2023-01-31T15:35:51.122Z,99416.63
2023-01-31T15:39:07.521Z,99411.53
2023-01-31T15:42:24.105Z,99415.97
2023-01-31T15:45:36.152Z,99409.97
2023-01-31T15:48:45.765Z,99405.06
2023-01-31T15:52:13.918Z,99406.84
2023-01-31T15:55:25.012Z,99410.41
2023-01-31T15:58:36.741Z,99417.31
2023-01-31T16:01:50.735Z,99407.63
2023-01-31T16:05:00.742Z,99407.22
2023-01-31T16:08:22.156Z,99408.69
2023-01-31T16:11:34.399Z,99397.94
2023-01-31T16:14:47.985Z,99384.31
2023-01-31T16:18:03.465Z,99401.69
2023-01-31T16:21:16.485Z,99394.06
2023-01-31T16:24:28.509Z,99395.13
2023-01-31T16:27:39.531Z,99400.41
2023-01-31T16:30:49.438Z,99404.31
2023-01-31T16:34:04.225Z,99398.75
2023-01-31T16:37:14.033Z,99393.34
2023-01-31T16:40:28.697Z,99406.22
2023-01-31T16:43:38.397Z,99404.66
2023-01-31T16:46:49.905Z,99423.88
2023-01-31T16:50:41.779Z,99415.16
2023-01-31T16:54:16.379Z,99407.34
2023-01-31T16:57:38.484Z,99415.16
2023-01-31T17:00:49.679Z,99413.69
2023-01-31T17:04:04.404Z,99418.97
2023-01-31T17:07:19.725Z,99410.75
2023-01-31T17:10:31.712Z,99421.75
2023-01-31T17:13:41.370Z,99414.41
2023-01-31T17:16:52.138Z,99419.69
2023-01-31T17:20:01.894Z,99430.09
2023-01-31T17:23:13.806Z,99433.72
2023-01-31T17:26:24.387Z,99428.88
2023-01-31T17:29:34.751Z,99422.94
2023-01-31T17:32:44.664Z,99425.50
2023-01-31T17:35:57.649Z,99433.88
2023-01-31T17:39:08.662Z,99428.63
2023-01-31T17:42:19.995Z,99437.19
2023-01-31T17:45:29.869Z,99441.19
2023-01-31T17:48:39.631Z,99432.88
2023-01-31T17:51:49.285Z,99437.19
2023-01-31T17:55:00.289Z,99431.25
2023-01-31T17:58:14.177Z,99437.00
2023-01-31T18:01:24.791Z,99434.47
2023-01-31T18:04:34.334Z,99438.16
2023-01-31T18:07:44.352Z,99431.75
2023-01-31T18:10:55.505Z,99429.03
2023-01-31T18:14:05.509Z,99427.63
2023-01-31T18:17:15.159Z,99421.97
2023-01-31T18:20:24.922Z,99424.03
2023-01-31T18:23:34.453Z,99439.88
2023-01-31T18:26:45.762Z,99441.50
2023-01-31T18:29:56.201Z,99442.31
2023-01-31T18:33:06.111Z,99435.84
2023-01-31T18:36:19.165Z,99452.91
2023-01-31T18:39:29.030Z,99434.19
2023-01-31T18:42:39.882Z,99427.63
2023-01-31T18:45:49.568Z,99432.72
2023-01-31T18:48:59.209Z,99429.09
2023-01-31T18:52:09.508Z,99438.47
2023-01-31T18:55:19.616Z,99440.94
2023-01-31T18:58:34.943Z,99448.00
2023-01-31T19:01:44.533Z,99445.72
2023-01-31T19:04:55.087Z,99446.69
2023-01-31T19:08:04.763Z,99446.25
2023-01-31T19:11:15.949Z,99443.47
2023-01-31T19:14:26.717Z,99431.56
2023-01-31T19:17:36.693Z,99438.41
2023-01-31T19:20:47.782Z,99425.19
2023-01-31T19:23:59.201Z,99428.38
2023-01-31T19:27:08.724Z,99427.13
2023-01-31T19:30:19.925Z,99437.91
2023-01-31T19:33:29.489Z,99428.97
2023-01-31T19:36:41.430Z,99425.84
2023-01-31T19:39:51.040Z,99418.59
2023-01-31T19:43:00.791Z,99426.06
2023-01-31T19:46:12.795Z,99421.75
2023-01-31T19:49:23.021Z,99421.75
2023-01-31T19:52:32.886Z,99417.63
2023-01-31T19:55:42.493Z,99432.00
2023-01-31T19:58:53.298Z,99426.16
2023-01-31T20:02:04.271Z,99421.06
2023-01-31T20:05:14.741Z,99427.50
2023-01-31T20:08:26.304Z,99424.38
2023-01-31T20:11:37.229Z,99416.28
2023-01-31T20:14:46.874Z,99421.88
